^^
WestSenecaWeather Station Historical Data
 
Daily Summary for July 23, 2017 Units:  English    Metric   Both
Daily Weekly Monthly Yearly Custom
  Current: High: Low: Average:
Temperature: 71.0 °F 71.0 °F 67.0 °F 68.5 °F
Dew Point: 67.3 °F 67.7 °F 64.9 °F 66.3 °F
Humidity: 88% 95% 88% 93%
Wind Speed: 3.5mph 9.2mph 0.0mph 2.5mph
Wind Gust: 3.5mph 9.2mph - -
WindNE - - ENE
Pressure: 29.73 in 29.75 in 29.71 in -
Precipitation: 0.01 in      
Historical Graphs
 
 
Tabular Data for July 23, 2017
Time Temperature Dew Point Pressure Wind Wind Speed Wind Gust Humidity Rainfall Rate (Hourly) solar
00:00 70.1 °F 67.7 °F 29.75 in North 5.0 mph 5.0 mph 92% 0.07 in 0.0 W/m2
00:05 69.7 °F 67.6 °F 29.74 in NNE 5.8 mph 5.8 mph 93% 0.01 in 0.0 W/m2
00:10 69.7 °F 67.6 °F 29.75 in North 4.6 mph 4.6 mph 93% 0.01 in 0.0 W/m2
00:15 69.7 °F 67.6 °F 29.75 in NE 3.5 mph 3.5 mph 93% 0.01 in 0.0 W/m2
00:20 69.7 °F 67.6 °F 29.75 in NNE 3.0 mph 3.0 mph 93% 0.01 in 0.0 W/m2
00:25 69.7 °F 67.6 °F 29.75 in NE 4.6 mph 4.6 mph 93% 0.01 in 0.0 W/m2
00:30 69.6 °F 67.5 °F 29.75 in Calm     93% 0.01 in 0.0 W/m2
00:35 69.6 °F 67.5 °F 29.74 in NE 2.0 mph 2.0 mph 93% 0.01 in 0.0 W/m2
00:40 69.5 °F 67.4 °F 29.75 in NE 4.0 mph 4.0 mph 93% 0.00 in 0.0 W/m2
00:45 69.4 °F 67.0 °F 29.74 in NE 3.5 mph 3.5 mph 92% 0.00 in 0.0 W/m2
00:50 69.3 °F 66.9 °F 29.74 in Calm     92% 0.06 in 0.0 W/m2
00:55 69.2 °F 66.8 °F 29.74 in NE 3.5 mph 3.5 mph 92% 0.02 in 0.0 W/m2
01:00 69.2 °F 66.8 °F 29.74 in NE 3.5 mph 3.5 mph 92% 0.01 in 0.0 W/m2
01:05 69.2 °F 66.8 °F 29.74 in Calm     92% 0.00 in 0.0 W/m2
01:10 69.0 °F 66.6 °F 29.74 in NE 2.3 mph 2.3 mph 92% 0.00 in 0.0 W/m2
01:15 69.0 °F 66.6 °F 29.74 in Calm     92% 0.00 in 0.0 W/m2
01:20 69.0 °F 66.9 °F 29.74 in Calm     93% 0.00 in 0.0 W/m2
01:25 69.0 °F 66.9 °F 29.74 in Calm     93% 0.00 in 0.0 W/m2
01:30 68.9 °F 66.8 °F 29.74 in Calm     93% 0.00 in 0.0 W/m2
01:35 69.0 °F 67.2 °F 29.74 in Calm     94% 0.00 in 0.0 W/m2
01:40 69.0 °F 67.2 °F 29.73 in Calm     94% 0.00 in 0.0 W/m2
01:45 69.0 °F 67.2 °F 29.74 in Calm     94% 0.00 in 0.0 W/m2
01:50 68.8 °F 67.0 °F 29.73 in Calm     94% 0.00 in 0.0 W/m2
01:55 68.8 °F 67.0 °F 29.73 in Calm     94% 0.00 in 0.0 W/m2
02:00 68.7 °F 66.9 °F 29.74 in Calm     94% 0.00 in 0.0 W/m2
02:05 68.6 °F 66.8 °F 29.74 in Calm     94% 0.00 in 0.0 W/m2
02:10 68.6 °F 66.8 °F 29.73 in Calm     94% 0.00 in 0.0 W/m2
02:15 68.6 °F 66.8 °F 29.73 in Calm     94% 0.00 in 0.0 W/m2
02:21 68.6 °F 66.8 °F 29.73 in Calm     94% 0.00 in 0.0 W/m2
02:26 68.6 °F 66.8 °F 29.73 in Calm     94% 0.00 in 0.0 W/m2
02:31 68.6 °F 66.8 °F 29.73 in NE 2.3 mph 2.3 mph 94% 0.00 in 0.0 W/m2
02:36 68.3 °F 66.5 °F 29.73 in NE 2.3 mph 2.3 mph 94% 0.00 in 0.0 W/m2
02:41 68.1 °F 66.3 °F 29.72 in Calm     94% 0.00 in 0.0 W/m2
02:46 68.1 °F 66.3 °F 29.72 in NE 3.5 mph 3.5 mph 94% 0.00 in 0.0 W/m2
02:51 68.2 °F 66.4 °F 29.72 in NE 2.3 mph 2.3 mph 94% 0.00 in 0.0 W/m2
02:56 68.3 °F 66.5 °F 29.73 in NE 1.2 mph 1.2 mph 94% 0.00 in 0.0 W/m2
03:01 68.3 °F 66.5 °F 29.72 in NE 3.5 mph 3.5 mph 94% 0.00 in 0.0 W/m2
03:06 68.4 °F 66.6 °F 29.72 in NE 3.0 mph 3.0 mph 94% 0.00 in 0.0 W/m2
03:11 68.5 °F 66.4 °F 29.72 in NE 3.5 mph 3.5 mph 93% 0.00 in 0.0 W/m2
03:16 68.6 °F 66.5 °F 29.72 in NE 2.3 mph 2.3 mph 93% 0.00 in 0.0 W/m2
03:21 68.6 °F 66.8 °F 29.72 in NE 3.5 mph 3.5 mph 94% 0.00 in 0.0 W/m2
03:26 68.7 °F 66.9 °F 29.72 in NE 3.5 mph 3.5 mph 94% 0.00 in 0.0 W/m2
03:31 68.7 °F 66.9 °F 29.72 in NE 3.5 mph 3.5 mph 94% 0.00 in 0.0 W/m2
03:36 68.8 °F 67.0 °F 29.72 in NE 2.3 mph 2.3 mph 94% 0.00 in 0.0 W/m2
03:41 68.7 °F 66.9 °F 29.72 in NE 3.5 mph 3.5 mph 94% 0.00 in 0.0 W/m2
03:46 68.8 °F 67.0 °F 29.72 in NE 2.3 mph 2.3 mph 94% 0.00 in 0.0 W/m2
03:51 68.6 °F 66.8 °F 29.72 in NE 3.5 mph 3.5 mph 94% 0.00 in 0.0 W/m2
03:56 68.5 °F 66.4 °F 29.72 in NE 3.5 mph 3.5 mph 93% 0.00 in 0.0 W/m2
04:01 68.5 °F 66.4 °F 29.72 in Calm     93% 0.00 in 0.0 W/m2
04:06 68.5 °F 66.1 °F 29.72 in NE 3.5 mph 3.5 mph 92% 0.00 in 0.0 W/m2
04:11 68.6 °F 66.2 °F 29.72 in Calm     92% 0.00 in 0.0 W/m2
04:12 68.5 °F 66.1 °F 29.72 in Calm     92% 0.00 in 0.0 W/m2
04:17 68.5 °F 66.1 °F 29.72 in NE 1.0 mph 1.0 mph 92% 0.00 in 0.0 W/m2
04:22 68.5 °F 66.1 °F 29.72 in Calm     92% 0.00 in 0.0 W/m2
04:27 68.4 °F 66.0 °F 29.72 in NE 3.5 mph 3.5 mph 92% 0.00 in 0.0 W/m2
04:32 68.3 °F 65.9 °F 29.72 in North 4.6 mph 4.6 mph 92% 0.00 in 0.0 W/m2
04:37 68.1 °F 66.0 °F 29.71 in NNE 2.3 mph 2.3 mph 93% 0.00 in 0.0 W/m2
04:38 68.1 °F 66.0 °F 29.71 in NNE 3.5 mph 3.5 mph 93% 0.00 in 0.0 W/m2
04:43 68.1 °F 65.7 °F 29.71 in NE 4.6 mph 4.6 mph 92% 0.00 in 0.0 W/m2
04:48 68.1 °F 65.7 °F 29.72 in NNE 5.8 mph 5.8 mph 92% 0.00 in 0.0 W/m2
04:53 67.9 °F 65.5 °F 29.72 in North 3.5 mph 3.5 mph 92% 0.00 in 0.0 W/m2
04:58 67.8 °F 65.4 °F 29.72 in NNE 3.5 mph 3.5 mph 92% 0.00 in 0.0 W/m2
05:03 67.7 °F 65.0 °F 29.72 in NE 4.0 mph 4.0 mph 91% 0.00 in 0.0 W/m2
05:08 67.7 °F 65.3 °F 29.71 in NE 3.5 mph 3.5 mph 92% 0.00 in 0.0 W/m2
05:13 67.7 °F 65.3 °F 29.71 in NE 2.3 mph 2.3 mph 92% 0.00 in 0.0 W/m2
05:18 67.6 °F 65.2 °F 29.71 in NE 1.2 mph 1.2 mph 92% 0.00 in 0.0 W/m2
05:23 67.6 °F 65.2 °F 29.72 in Calm     92% 0.00 in 0.0 W/m2
05:28 67.6 °F 65.2 °F 29.72 in Calm     92% 0.00 in 0.0 W/m2
05:33 67.5 °F 65.1 °F 29.71 in NE 3.5 mph 3.5 mph 92% 0.00 in 0.0 W/m2
05:38 67.5 °F 65.1 °F 29.71 in NE 5.8 mph 5.8 mph 92% 0.00 in 0.0 W/m2
05:43 67.4 °F 65.0 °F 29.71 in Calm     92% 0.00 in 0.0 W/m2
05:48 67.3 °F 64.9 °F 29.71 in NE 1.0 mph   92% 0.00 in 0.0 W/m2
05:53 67.2 °F 65.1 °F 29.71 in NE 3.5 mph 3.5 mph 93% 0.00 in 0.0 W/m2
05:58 67.1 °F 65.0 °F 29.72 in NE 3.5 mph 3.5 mph 93% 0.00 in 0.0 W/m2
06:03 67.1 °F 65.0 °F 29.72 in NE 1.2 mph 1.2 mph 93% 0.00 in 0.0 W/m2
06:08 67.1 °F 65.0 °F 29.72 in NE 2.0 mph 2.0 mph 93% 0.00 in 0.0 W/m2
06:13 67.0 °F 64.9 °F 29.72 in NE 3.5 mph 3.5 mph 93% 0.00 in 0.0 W/m2
06:18 67.0 °F 64.9 °F 29.71 in NE 3.5 mph 3.5 mph 93% 0.00 in 0.0 W/m2
06:23 67.1 °F 65.3 °F 29.72 in NE 3.5 mph 3.5 mph 94% 0.00 in 0.0 W/m2
06:28 67.0 °F 65.2 °F 29.72 in NE 3.5 mph 3.5 mph 94% 0.00 in 0.0 W/m2
06:33 67.1 °F 65.3 °F 29.72 in Calm     94% 0.00 in 0.0 W/m2
06:38 67.1 °F 65.3 °F 29.72 in NE 2.3 mph   94% 0.00 in 0.0 W/m2
06:43 67.1 °F 65.3 °F 29.72 in NE 1.2 mph   94% 0.00 in 0.0 W/m2
06:48 67.2 °F 65.4 °F 29.72 in NE 3.5 mph 3.5 mph 94% 0.00 in 0.0 W/m2
06:53 67.2 °F 65.4 °F 29.72 in NE 2.0 mph 2.0 mph 94% 0.00 in 0.0 W/m2
06:58 67.2 °F 65.4 °F 29.72 in NE 2.3 mph 2.3 mph 94% 0.00 in 0.0 W/m2
07:03 67.2 °F 65.4 °F 29.73 in NE 2.3 mph 2.3 mph 94% 0.00 in 0.0 W/m2
07:08 67.3 °F 65.5 °F 29.73 in Calm     94% 0.00 in 0.0 W/m2
07:13 67.4 °F 65.6 °F 29.73 in NE 1.2 mph 1.2 mph 94% 0.00 in 0.0 W/m2
07:18 67.5 °F 66.0 °F 29.74 in Calm     95% 0.00 in 0.0 W/m2
07:23 67.7 °F 66.2 °F 29.74 in NE 2.3 mph 2.3 mph 95% 0.00 in 0.0 W/m2
07:28 67.8 °F 66.0 °F 29.74 in Calm     94% 0.00 in 0.0 W/m2
07:33 68.0 °F 66.2 °F 29.74 in NE 3.5 mph 3.5 mph 94% 0.00 in 0.0 W/m2
07:39 68.3 °F 66.5 °F 29.73 in NE 5.8 mph 5.8 mph 94% 0.00 in 0.0 W/m2
07:44 68.5 °F 66.4 °F 29.73 in NE 2.3 mph 2.3 mph 93% 0.00 in 0.0 W/m2
07:49 68.7 °F 66.6 °F 29.73 in NE 3.5 mph 3.5 mph 93% 0.00 in 0.0 W/m2
07:54 68.9 °F 66.5 °F 29.72 in East 7.0 mph 7.0 mph 92% 0.00 in 0.0 W/m2
07:59 69.1 °F 66.7 °F 29.72 in East 4.6 mph 4.6 mph 92% 0.00 in 0.0 W/m2
08:04 69.2 °F 66.5 °F 29.73 in ENE 9.2 mph 9.2 mph 91% 0.00 in 0.0 W/m2
08:09 69.4 °F 66.7 °F 29.73 in ENE 6.9 mph 6.9 mph 91% 0.00 in 0.0 W/m2
08:13 69.6 °F 66.9 °F 29.73 in North 5.8 mph 5.8 mph 91% 0.00 in 0.0 W/m2
08:19 70.1 °F 67.3 °F 29.72 in ENE 3.5 mph 3.5 mph 91% 0.00 in 0.0 W/m2
08:24 70.7 °F 67.3 °F 29.73 in ENE 5.8 mph 5.8 mph 89% 0.00 in 0.0 W/m2
08:29 71.0 °F 67.3 °F 29.73 in ENE 2.3 mph 2.3 mph 88% 0.00 in 0.0 W/m2
08:34 71.0 °F 67.3 °F 29.73 in ENE 5.8 mph 5.8 mph 88% 0.00 in 0.0 W/m2
08:39 70.9 °F 67.2 °F 29.73 in ESE 3.5 mph 3.5 mph 88% 0.00 in 0.0 W/m2
08:44 71.0 °F 67.3 °F 29.73 in NE 3.5 mph 3.5 mph 88% 0.00 in 0.0 W/m2
west seneca weather
Compliments of Weather Underground - 4 mb